Time;durP1;ratioP1;P1;durP2;ratioP2;P2;SDS_P1;SDS_P2;PMS_P1;PMS_P2;Temp;Humidity;BMP_temperature;BMP_pressure;BME280_temperature;BME280_humidity;BME280_pressure;Samples;Min_cycle;Max_cycle;Signal;HPM_P1;HPM_P2
2022/09/11 00:01:23;;;;;;;;;;;;;;;;;;5066444;28;19920;-60
2022/09/11 00:03:48;;;;;;;;;;;;;;;;;;5076316;28;20000;-59
2022/09/11 00:06:13;;;;;;;;;;;;;;;;;;5072725;28;19970;-59
2022/09/11 00:08:38;;;;;;;;;;;;;;;;;;5071467;28;20013;-59
2022/09/11 00:11:04;;;;;;;;;;;;;;;;;;5078325;28;20611;-59
2022/09/11 00:13:30;;;;;;;;;;;;;;;;;;5069166;28;19920;-60
2022/09/11 00:15:55;;;;;;;;;;;;;;;;;;5079938;28;19924;-60
2022/09/11 00:18:20;;;;;;;;;;;;;;;;;;5054934;28;19920;-59
2022/09/11 00:20:47;;;;;;;;;;;;;;;;;;5073226;28;19920;-59
2022/09/11 00:23:16;;;;;;;;;;;;;;;;;;5077888;28;19916;-59
2022/09/11 00:25:41;;;;;;;;;;;;;;;;;;5070084;28;20402;-59
2022/09/11 00:28:06;;;;;;;;;;;;;;;;;;5071913;28;19916;-59
2022/09/11 00:30:31;;;;;;;;;;;;;;;;;;5080937;28;19916;-59
2022/09/11 00:32:57;;;;;;;;;;;;;;;;;;5064253;28;20031;-59
2022/09/11 00:35:23;;;;;;;;;;;;;;;;;;5065180;28;19985;-59
2022/09/11 00:37:48;;;;;;;;;;;;;;;;;;5073486;28;19916;-59
2022/09/11 00:40:14;;;;;;;;;;;;;;;;;;5055752;28;20003;-60
2022/09/11 00:42:39;;;;;;;;;;;;;;;;;;5082762;28;19916;-59
2022/09/11 00:45:05;;;;;;;;;;;;;;;;;;5076596;28;20413;-59
2022/09/11 00:47:30;;;;;;;;;;;;;;;;;;5084116;28;19999;-59
2022/09/11 00:49:56;;;;;;;;;;;;;;;;;;5076046;28;19920;-57
2022/09/11 00:52:21;;;;;;;;;;;;;;;;;;5058418;28;19916;-57
2022/09/11 00:54:48;;;;;;;;;;;;;;;;;;5066329;28;19920;-58
2022/09/11 00:57:13;;;;;;;;;;;;;;;;;;5071431;28;19916;-58
2022/09/11 00:59:38;;;;;;;;;;;;;;;;;;5083485;28;19912;-57
2022/09/11 01:02:04;;;;;;;;;;;;;;;;;;5076619;28;20486;-58
2022/09/11 01:04:29;;;;;;;;;;;;;;;;;;5075869;28;20280;-57
2022/09/11 01:06:55;;;;;;;;;;;;;;;;;;5066715;28;19920;-59
2022/09/11 01:09:20;;;;;;;;;;;;;;;;;;5076191;28;20006;-59
2022/09/11 01:11:45;;;;;;;;;;;;;;;;;;5083262;28;19916;-59
2022/09/11 01:14:10;;;;;;;;;;;;;;;;;;5074797;28;20311;-59
2022/09/11 01:16:36;;;;;;;;;;;;;;;;;;5073727;28;19923;-59
2022/09/11 01:19:01;;;;;;;;;;;;;;;;;;5064872;28;20057;-60
2022/09/11 01:21:26;;;;;;;;;;;;;;;;;;5058026;28;19959;-58
2022/09/11 01:23:53;;;;;;;;;;;;;;;;;;5082133;28;19916;-59
2022/09/11 01:26:21;;;;;;;;;;;;;;;;;;5073588;28;20158;-58
2022/09/11 01:28:46;;;;;;;;;;;;;;;;;;5072839;28;20022;-58
2022/09/11 01:31:11;;;;;;;;;;;;;;;;;;5078677;28;20803;-59
2022/09/11 01:33:37;;;;;;;;;;;;;;;;;;5071917;28;19958;-58
2022/09/11 01:36:02;;;;;;;;;;;;;;;;;;5079213;28;20053;-58
2022/09/11 01:38:27;;;;;;;;;;;;;;;;;;5069617;28;19916;-58
2022/09/11 01:40:53;;;;;;;;;;;;;;;;;;5061624;28;20045;-59
2022/09/11 01:43:21;;;;;;;;;;;;;;;;;;5078880;28;19965;-58
2022/09/11 01:45:46;;;;;;;;;;;;;;;;;;5072034;28;20303;-58
2022/09/11 01:48:11;;;;;;;;;;;;;;;;;;5081754;28;19916;-59
2022/09/11 01:50:36;;;;;;;;;;;;;;;;;;5072399;28;20387;-58
2022/09/11 01:53:02;;;;;;;;;;;;;;;;;;5073110;28;19921;-58
2022/09/11 01:55:27;;;;;;;;;;;;;;;;;;5081361;28;19923;-59
2022/09/11 01:57:54;;;;;;;;;;;;;;;;;;5057633;28;20269;-58
2022/09/11 02:00:20;;;;;;;;;;;;;;;;;;5062334;28;19928;-58
2022/09/11 02:02:50;;;;;;;;;;;;;;;;;;5072519;28;20479;-58
2022/09/11 02:05:16;;;;;;;;;;;;;;;;;;5055244;28;20347;-58
2022/09/11 02:07:41;;;;;;;;;;;;;;;;;;5082684;28;19959;-59
2022/09/11 02:10:06;;;;;;;;;;;;;;;;;;5059368;28;19916;-58
2022/09/11 02:12:31;;;;;;;;;;;;;;;;;;5079479;28;20038;-59
2022/09/11 02:14:58;;;;;;;;;;;;;;;;;;5058969;28;19923;-59
2022/09/11 02:17:23;;;;;;;;;;;;;;;;;;5069168;28;20632;-59
2022/09/11 02:19:48;;;;;;;;;;;;;;;;;;5062921;28;19916;-59
2022/09/11 02:22:13;;;;;;;;;;;;;;;;;;5073268;28;19916;-59
2022/09/11 02:24:39;;;;;;;;;;;;;;;;;;5064139;28;19942;-59
2022/09/11 02:27:04;;;;;;;;;;;;;;;;;;5074097;28;20323;-59
2022/09/11 02:29:30;;;;;;;;;;;;;;;;;;5070499;28;19916;-59
2022/09/11 02:31:55;;;;;;;;;;;;;;;;;;5070104;28;19927;-59
2022/09/11 02:34:20;;;;;;;;;;;;;;;;;;5058626;28;19920;-59
2022/09/11 02:36:47;;;;;;;;;;;;;;;;;;5082006;28;20578;-59
2022/09/11 02:39:12;;;;;;;;;;;;;;;;;;5055089;28;20620;-59
2022/09/11 02:41:38;;;;;;;;;;;;;;;;;;5071375;28;20018;-59
2022/09/11 02:44:03;;;;;;;;;;;;;;;;;;5078683;28;19923;-60
2022/09/11 02:46:28;;;;;;;;;;;;;;;;;;5055089;28;19939;-60
2022/09/11 02:48:54;;;;;;;;;;;;;;;;;;5063513;28;19963;-59
2022/09/11 02:51:19;;;;;;;;;;;;;;;;;;5039905;28;20008;-59
2022/09/11 02:53:45;;;;;;;;;;;;;;;;;;5075937;28;19916;-59
2022/09/11 02:56:10;;;;;;;;;;;;;;;;;;5078623;28;20489;-60
2022/09/11 02:58:37;;;;;;;;;;;;;;;;;;5059586;28;20296;-60
2022/09/11 03:01:02;;;;;;;;;;;;;;;;;;5061435;28;20061;-60
2022/09/11 03:03:29;;;;;;;;;;;;;;;;;;5055633;28;20019;-60
2022/09/11 03:05:54;;;;;;;;;;;;;;;;;;5055751;28;20102;-60
2022/09/11 03:08:20;;;;;;;;;;;;;;;;;;5064384;28;19920;-60
2022/09/11 03:10:48;;;;;;;;;;;;;;;;;;5075224;28;19923;-60
2022/09/11 03:13:13;;;;;;;;;;;;;;;;;;5079096;28;20158;-60
2022/09/11 03:15:39;;;;;;;;;;;;;;;;;;5058106;28;20323;-60
2022/09/11 03:18:04;;;;;;;;;;;;;;;;;;5069066;28;19916;-61
2022/09/11 03:20:29;;;;;;;;;;;;;;;;;;5076949;28;19923;-60
2022/09/11 03:22:54;;;;;;;;;;;;;;;;;;5071279;28;19920;-60
2022/09/11 03:25:20;;;;;;;;;;;;;;;;;;5079704;28;19930;-61
2022/09/11 03:27:46;;;;;;;;;;;;;;;;;;5071144;28;19998;-61
2022/09/11 03:30:12;;;;;;;;;;;;;;;;;;5069603;28;19916;-60
2022/09/11 03:32:37;;;;;;;;;;;;;;;;;;5048781;28;19916;-60
2022/09/11 03:35:02;;;;;;;;;;;;;;;;;;5070147;28;19916;-60
2022/09/11 03:37:30;;;;;;;;;;;;;;;;;;5078348;28;19920;-60
2022/09/11 03:39:56;;;;;;;;;;;;;;;;;;5074254;28;19920;-60
2022/09/11 03:42:21;;;;;;;;;;;;;;;;;;5073712;28;20605;-60
2022/09/11 03:44:46;;;;;;;;;;;;;;;;;;5081638;28;19920;-60
2022/09/11 03:47:12;;;;;;;;;;;;;;;;;;5055100;28;20004;-60
2022/09/11 03:49:37;;;;;;;;;;;;;;;;;;5065280;28;20053;-60
2022/09/11 03:52:02;;;;;;;;;;;;;;;;;;5054664;28;19973;-60
2022/09/11 03:54:27;;;;;;;;;;;;;;;;;;5055243;28;20261;-60
2022/09/11 03:56:53;;;;;;;;;;;;;;;;;;5080349;28;19931;-60
2022/09/11 03:59:19;;;;;;;;;;;;;;;;;;5058543;28;20106;-61
2022/09/11 04:01:44;;;;;;;;;;;;;;;;;;5080502;28;20644;-61
2022/09/11 04:04:09;;;;;;;;;;;;;;;;;;5053642;28;19920;-60
2022/09/11 04:06:39;;;;;;;;;;;;;;;;;;5057472;28;19919;-60
2022/09/11 04:09:04;;;;;;;;;;;;;;;;;;5078526;28;19926;-60
2022/09/11 04:11:30;;;;;;;;;;;;;;;;;;5076305;28;19947;-61
2022/09/11 04:13:58;;;;;;;;;;;;;;;;;;5059206;28;19923;-61
2022/09/11 04:16:24;;;;;;;;;;;;;;;;;;5066095;28;19923;-60
2022/09/11 04:18:53;;;;;;;;;;;;;;;;;;5059863;28;20868;-60
2022/09/11 04:21:18;;;;;;;;;;;;;;;;;;5080300;28;20380;-61
2022/09/11 04:23:47;;;;;;;;;;;;;;;;;;5043499;28;20022;-61
2022/09/11 04:26:14;;;;;;;;;;;;;;;;;;5075278;28;19920;-61
2022/09/11 04:28:39;;;;;;;;;;;;;;;;;;5083003;28;19943;-61
2022/09/11 04:31:05;;;;;;;;;;;;;;;;;;5075915;28;20065;-61
2022/09/11 04:33:31;;;;;;;;;;;;;;;;;;5085211;28;19920;-60
2022/09/11 04:35:56;;;;;;;;;;;;;;;;;;5075178;28;19963;-60
2022/09/11 04:38:22;;;;;;;;;;;;;;;;;;5061720;28;20747;-60
2022/09/11 04:40:48;;;;;;;;;;;;;;;;;;5065825;28;19916;-60
2022/09/11 04:43:15;;;;;;;;;;;;;;;;;;5055368;28;19922;-60
2022/09/11 04:45:40;;;;;;;;;;;;;;;;;;5083283;28;19916;-60
2022/09/11 04:48:06;;;;;;;;;;;;;;;;;;5057712;28;19920;-60
2022/09/11 04:50:31;;;;;;;;;;;;;;;;;;5075406;28;20369;-60
2022/09/11 04:53:11;;;;;;;;;;;;;;;;;;5081384;28;19920;-60
2022/09/11 04:55:36;;;;;;;;;;;;;;;;;;5063549;28;19912;-60
2022/09/11 04:58:02;;;;;;;;;;;;;;;;;;5083525;28;20280;-60
2022/09/11 05:00:27;;;;;;;;;;;;;;;;;;5073979;28;20007;-60
2022/09/11 05:02:54;;;;;;;;;;;;;;;;;;5073509;28;20002;-60
2022/09/11 05:05:19;;;;;;;;;;;;;;;;;;5079333;28;20435;-60
2022/09/11 05:07:44;;;;;;;;;;;;;;;;;;5073257;28;20117;-60
2022/09/11 05:10:10;;;;;;;;;;;;;;;;;;5064722;28;20139;-60
2022/09/11 05:12:35;;;;;;;;;;;;;;;;;;5055548;28;19928;-60
2022/09/11 05:15:00;;;;;;;;;;;;;;;;;;5071150;28;19916;-60
2022/09/11 05:17:26;;;;;;;;;;;;;;;;;;5065209;28;20031;-60
2022/09/11 05:19:51;;;;;;;;;;;;;;;;;;5072842;28;20514;-60
2022/09/11 05:22:19;;;;;;;;;;;;;;;;;;5085052;28;19916;-60
2022/09/11 05:24:49;;;;;;;;;;;;;;;;;;5057923;28;19970;-61
2022/09/11 05:27:15;;;;;;;;;;;;;;;;;;5055247;28;20470;-60
2022/09/11 05:29:40;;;;;;;;;;;;;;;;;;5064404;28;19947;-59
2022/09/11 05:32:11;;;;;;;;;;;;;;;;;;5069740;28;19959;-59
2022/09/11 05:34:37;;;;;;;;;;;;;;;;;;5062319;28;20022;-59
2022/09/11 05:37:02;;;;;;;;;;;;;;;;;;5079758;28;19967;-59
2022/09/11 05:39:31;;;;;;;;;;;;;;;;;;5056619;28;19916;-59
2022/09/11 05:41:58;;;;;;;;;;;;;;;;;;5079941;28;19935;-58
2022/09/11 05:44:29;;;;;;;;;;;;;;;;;;5070995;28;19926;-59
2022/09/11 05:46:55;;;;;;;;;;;;;;;;;;5070302;28;19920;-59
2022/09/11 05:49:20;;;;;;;;;;;;;;;;;;5051796;28;20028;-59
2022/09/11 05:51:45;;;;;;;;;;;;;;;;;;5055927;28;20364;-59
2022/09/11 05:54:11;;;;;;;;;;;;;;;;;;5076998;28;20355;-59
2022/09/11 05:56:36;;;;;;;;;;;;;;;;;;5072354;28;20348;-59
2022/09/11 05:59:06;;;;;;;;;;;;;;;;;;5057668;28;20344;-59
2022/09/11 06:01:35;;;;;;;;;;;;;;;;;;5080457;28;19977;-59
2022/09/11 06:04:09;;;;;;;;;;;;;;;;;;5070845;28;19920;-59
2022/09/11 06:06:35;;;;;;;;;;;;;;;;;;5066690;28;19973;-59
2022/09/11 06:09:01;;;;;;;;;;;;;;;;;;5058986;28;19916;-59
2022/09/11 06:11:26;;;;;;;;;;;;;;;;;;5072033;28;19918;-59
2022/09/11 06:13:52;;;;;;;;;;;;;;;;;;5051027;28;19920;-59
2022/09/11 06:16:18;;;;;;;;;;;;;;;;;;5056487;28;19916;-59
2022/09/11 06:18:44;;;;;;;;;;;;;;;;;;5062941;28;20329;-59
2022/09/11 06:21:10;;;;;;;;;;;;;;;;;;5072022;28;19962;-59
2022/09/11 06:23:42;;;;;;;;;;;;;;;;;;5054606;28;20322;-59
2022/09/11 06:26:08;;;;;;;;;;;;;;;;;;5081729;28;19920;-59
2022/09/11 06:28:35;;;;;;;;;;;;;;;;;;5074374;28;19959;-59
2022/09/11 06:31:01;;;;;;;;;;;;;;;;;;5078627;28;20325;-59
2022/09/11 06:33:27;;;;;;;;;;;;;;;;;;5073644;28;19961;-59
2022/09/11 06:35:52;;;;;;;;;;;;;;;;;;5056256;28;19919;-59
2022/09/11 06:38:17;;;;;;;;;;;;;;;;;;5078007;28;20075;-59
2022/09/11 06:40:43;;;;;;;;;;;;;;;;;;5073763;28;20309;-59
2022/09/11 06:43:08;;;;;;;;;;;;;;;;;;5074218;28;19987;-59
2022/09/11 06:45:33;;;;;;;;;;;;;;;;;;5062052;28;20025;-59
2022/09/11 06:47:59;;;;;;;;;;;;;;;;;;5056945;28;19961;-60
2022/09/11 06:50:25;;;;;;;;;;;;;;;;;;5079403;28;19989;-59
2022/09/11 06:53:01;;;;;;;;;;;;;;;;;;5053814;28;19923;-59
2022/09/11 06:55:28;;;;;;;;;;;;;;;;;;5074228;28;19951;-59
2022/09/11 06:58:03;;;;;;;;;;;;;;;;;;5066209;28;19916;-59
2022/09/11 07:00:30;;;;;;;;;;;;;;;;;;5073387;28;19920;-58
2022/09/11 07:02:55;;;;;;;;;;;;;;;;;;5062002;28;19969;-59
2022/09/11 07:05:21;;;;;;;;;;;;;;;;;;5052632;28;20023;-59
2022/09/11 07:07:49;;;;;;;;;;;;;;;;;;5071543;28;20450;-59
2022/09/11 07:10:14;;;;;;;;;;;;;;;;;;5062296;28;19916;-59
2022/09/11 07:12:40;;;;;;;;;;;;;;;;;;5073072;28;20254;-59
2022/09/11 07:15:05;;;;;;;;;;;;;;;;;;5067236;28;19920;-59
2022/09/11 07:17:31;;;;;;;;;;;;;;;;;;5072768;28;19995;-60
2022/09/11 07:19:57;;;;;;;;;;;;;;;;;;5054263;28;19932;-60
2022/09/11 07:22:22;;;;;;;;;;;;;;;;;;5045379;28;20396;-59
2022/09/11 07:24:47;;;;;;;;;;;;;;;;;;5069343;28;19974;-59
2022/09/11 07:27:13;;;;;;;;;;;;;;;;;;5063724;28;19916;-59
2022/09/11 07:29:39;;;;;;;;;;;;;;;;;;5072668;28;19916;-59
2022/09/11 07:32:05;;;;;;;;;;;;;;;;;;5071210;28;19920;-59
2022/09/11 07:34:30;;;;;;;;;;;;;;;;;;5061941;28;20342;-59
2022/09/11 07:36:59;;;;;;;;;;;;;;;;;;5075930;28;19999;-59
2022/09/11 07:39:25;;;;;;;;;;;;;;;;;;5078160;28;19989;-59
2022/09/11 07:42:06;;;;;;;;;;;;;;;;;;5079290;28;20019;-60
2022/09/11 07:44:31;;;;;;;;;;;;;;;;;;5071902;28;19924;-59
2022/09/11 07:46:56;;;;;;;;;;;;;;;;;;5082002;28;19916;-60
2022/09/11 07:49:22;;;;;;;;;;;;;;;;;;5071202;28;19928;-59
2022/09/11 07:51:47;;;;;;;;;;;;;;;;;;5057011;28;19927;-60
2022/09/11 07:54:19;;;;;;;;;;;;;;;;;;5078212;28;19918;-60
2022/09/11 07:56:45;;;;;;;;;;;;;;;;;;5073836;28;19916;-60
2022/09/11 07:59:10;;;;;;;;;;;;;;;;;;5076854;28;19922;-60
2022/09/11 08:01:41;;;;;;;;;;;;;;;;;;5061733;28;19941;-60
2022/09/11 08:04:06;;;;;;;;;;;;;;;;;;5045867;28;21366;-60
2022/09/11 08:06:33;;;;;;;;;;;;;;;;;;5081149;28;19928;-60
2022/09/11 08:09:00;;;;;;;;;;;;;;;;;;5056328;28;20463;-60
2022/09/11 08:11:27;;;;;;;;;;;;;;;;;;5066760;28;20700;-60
2022/09/11 08:13:52;;;;;;;;;;;;;;;;;;5079274;28;19927;-60
2022/09/11 08:16:19;;;;;;;;;;;;;;;;;;5058830;28;20402;-59
2022/09/11 08:18:45;;;;;;;;;;;;;;;;;;5069711;28;20014;-59
2022/09/11 08:21:12;;;;;;;;;;;;;;;;;;5075327;28;19920;-59
2022/09/11 08:23:39;;;;;;;;;;;;;;;;;;5083574;28;19955;-59
2022/09/11 08:26:04;;;;;;;;;;;;;;;;;;5060980;28;20097;-59
2022/09/11 08:28:30;;;;;;;;;;;;;;;;;;5079172;28;19955;-60
2022/09/11 08:30:55;;;;;;;;;;;;;;;;;;5083392;28;19916;-59
2022/09/11 08:33:20;;;;;;;;;;;;;;;;;;5059337;28;19916;-60
2022/09/11 08:35:45;;;;;;;;;;;;;;;;;;5081294;28;19927;-59
2022/09/11 08:38:10;;;;;;;;;;;;;;;;;;5057573;28;19924;-60
2022/09/11 08:40:36;;;;;;;;;;;;;;;;;;5058391;28;20440;-60
2022/09/11 08:43:03;;;;;;;;;;;;;;;;;;5063777;28;19912;-60
2022/09/11 08:45:28;;;;;;;;;;;;;;;;;;5072629;28;20395;-60
2022/09/11 08:47:53;;;;;;;;;;;;;;;;;;5065705;28;19916;-60
2022/09/11 08:50:19;;;;;;;;;;;;;;;;;;5054478;28;19920;-61
2022/09/11 08:52:44;;;;;;;;;;;;;;;;;;5058366;28;19970;-60
2022/09/11 08:55:11;;;;;;;;;;;;;;;;;;5067209;28;19926;-60
2022/09/11 08:57:36;;;;;;;;;;;;;;;;;;5078833;28;19912;-60
2022/09/11 09:00:03;;;;;;;;;;;;;;;;;;5071543;28;20382;-61
2022/09/11 09:02:32;;;;;;;;;;;;;;;;;;5058920;28;19948;-60
2022/09/11 09:04:58;;;;;;;;;;;;;;;;;;5066586;28;20023;-61
2022/09/11 09:07:24;;;;;;;;;;;;;;;;;;5059006;28;19919;-61
2022/09/11 09:09:49;;;;;;;;;;;;;;;;;;5079072;28;19942;-61
2022/09/11 09:12:14;;;;;;;;;;;;;;;;;;5069858;28;19954;-61
2022/09/11 09:14:40;;;;;;;;;;;;;;;;;;5060540;28;19915;-60
2022/09/11 09:17:05;;;;;;;;;;;;;;;;;;5082502;28;20365;-61
2022/09/11 09:19:32;;;;;;;;;;;;;;;;;;5074291;28;19916;-60
2022/09/11 09:21:59;;;;;;;;;;;;;;;;;;5058340;28;19924;-60
2022/09/11 09:24:24;;;;;;;;;;;;;;;;;;5064733;28;19922;-60
2022/09/11 09:26:51;;;;;;;;;;;;;;;;;;5076277;28;20338;-60
2022/09/11 09:29:17;;;;;;;;;;;;;;;;;;5082986;28;19927;-60
2022/09/11 09:31:43;;;;;;;;;;;;;;;;;;5075767;28;20384;-60
2022/09/11 09:34:08;;;;;;;;;;;;;;;;;;5056363;28;19920;-60
2022/09/11 09:36:34;;;;;;;;;;;;;;;;;;5068458;28;19920;-60
2022/09/11 09:38:59;;;;;;;;;;;;;;;;;;5054014;28;19912;-60
2022/09/11 09:41:24;;;;;;;;;;;;;;;;;;5083397;28;19919;-60
2022/09/11 09:43:50;;;;;;;;;;;;;;;;;;5075592;28;19936;-60
2022/09/11 09:46:15;;;;;;;;;;;;;;;;;;5085584;28;19916;-61
2022/09/11 09:48:40;;;;;;;;;;;;;;;;;;5064183;28;20069;-61
2022/09/11 09:51:05;;;;;;;;;;;;;;;;;;5058591;28;19999;-61
2022/09/11 09:53:31;;;;;;;;;;;;;;;;;;5083952;28;19916;-60
2022/09/11 09:55:56;;;;;;;;;;;;;;;;;;5077979;28;19961;-60
2022/09/11 09:58:21;;;;;;;;;;;;;;;;;;5084951;28;19953;-61
2022/09/11 10:00:47;;;;;;;;;;;;;;;;;;5063848;28;19920;-60
2022/09/11 10:03:12;;;;;;;;;;;;;;;;;;5071243;28;19923;-61
2022/09/11 10:05:37;;;;;;;;;;;;;;;;;;5084182;28;20011;-61
2022/09/11 10:08:02;;;;;;;;;;;;;;;;;;5064290;28;19943;-61
2022/09/11 10:10:27;;;;;;;;;;;;;;;;;;5085541;28;20605;-61
2022/09/11 10:12:53;;;;;;;;;;;;;;;;;;5065962;28;20292;-60
2022/09/11 10:15:18;;;;;;;;;;;;;;;;;;5076051;28;19916;-60
2022/09/11 10:17:43;;;;;;;;;;;;;;;;;;5085475;28;20361;-61
2022/09/11 10:20:11;;;;;;;;;;;;;;;;;;5059240;28;19955;-61
2022/09/11 10:22:36;;;;;;;;;;;;;;;;;;5083962;28;20027;-60
2022/09/11 10:25:02;;;;;;;;;;;;;;;;;;5075376;28;19930;-61
2022/09/11 10:27:27;;;;;;;;;;;;;;;;;;5076221;28;20002;-61
2022/09/11 10:29:53;;;;;;;;;;;;;;;;;;5070610;28;19923;-61
2022/09/11 10:32:18;;;;;;;;;;;;;;;;;;5077633;28;19928;-61
2022/09/11 10:34:43;;;;;;;;;;;;;;;;;;5083261;28;19916;-61
2022/09/11 10:37:08;;;;;;;;;;;;;;;;;;5058852;28;20330;-61
2022/09/11 10:39:34;;;;;;;;;;;;;;;;;;5072808;28;19916;-62
2022/09/11 10:41:59;;;;;;;;;;;;;;;;;;5066368;28;20568;-62
2022/09/11 10:44:24;;;;;;;;;;;;;;;;;;5053397;28;19924;-62
2022/09/11 10:46:49;;;;;;;;;;;;;;;;;;5082503;28;20342;-63
2022/09/11 10:49:14;;;;;;;;;;;;;;;;;;5076203;28;19995;-61
2022/09/11 10:51:39;;;;;;;;;;;;;;;;;;5077595;28;19963;-61
2022/09/11 10:54:05;;;;;;;;;;;;;;;;;;5084603;28;19931;-61
2022/09/11 10:56:30;;;;;;;;;;;;;;;;;;5077036;28;19916;-61
2022/09/11 10:58:55;;;;;;;;;;;;;;;;;;5082474;28;19927;-61
2022/09/11 11:01:20;;;;;;;;;;;;;;;;;;5058485;28;19923;-61
2022/09/11 11:03:46;;;;;;;;;;;;;;;;;;5074565;28;19916;-61
2022/09/11 11:06:11;;;;;;;;;;;;;;;;;;5083205;28;19920;-62
2022/09/11 11:08:36;;;;;;;;;;;;;;;;;;5075852;28;20360;-62
2022/09/11 11:11:02;;;;;;;;;;;;;;;;;;5083851;28;19912;-62
2022/09/11 11:13:28;;;;;;;;;;;;;;;;;;5076248;28;19927;-62
2022/09/11 11:15:55;;;;;;;;;;;;;;;;;;5072807;28;19916;-61
2022/09/11 11:18:20;;;;;;;;;;;;;;;;;;5084159;28;20672;-61
2022/09/11 11:20:45;;;;;;;;;;;;;;;;;;5058355;28;19923;-62
2022/09/11 11:23:11;;;;;;;;;;;;;;;;;;5082006;28;19947;-62
2022/09/11 11:25:36;;;;;;;;;;;;;;;;;;5078032;28;20633;-62
2022/09/11 11:28:01;;;;;;;;;;;;;;;;;;5077027;28;19955;-62
2022/09/11 11:30:26;;;;;;;;;;;;;;;;;;5082886;28;19926;-62
2022/09/11 11:32:52;;;;;;;;;;;;;;;;;;5076360;28;19916;-62
2022/09/11 11:35:17;;;;;;;;;;;;;;;;;;5082152;28;19927;-62
2022/09/11 11:37:42;;;;;;;;;;;;;;;;;;5076072;28;19916;-63
2022/09/11 11:40:07;;;;;;;;;;;;;;;;;;5073077;28;19912;-62
2022/09/11 11:42:33;;;;;;;;;;;;;;;;;;5082201;28;19923;-62
2022/09/11 11:44:59;;;;;;;;;;;;;;;;;;5074771;28;19927;-62
2022/09/11 11:47:24;;;;;;;;;;;;;;;;;;5066604;28;19920;-62
2022/09/11 11:49:50;;;;;;;;;;;;;;;;;;5079305;28;19973;-62
2022/09/11 11:52:15;;;;;;;;;;;;;;;;;;5074787;28;19920;-62
2022/09/11 11:54:40;;;;;;;;;;;;;;;;;;5082642;28;19916;-62
2022/09/11 11:57:09;;;;;;;;;;;;;;;;;;5070278;28;20070;-63
2022/09/11 11:59:34;;;;;;;;;;;;;;;;;;5069132;28;20611;-62
2022/09/11 12:02:01;;;;;;;;;;;;;;;;;;5079190;28;19916;-63
2022/09/11 12:04:26;;;;;;;;;;;;;;;;;;5073958;28;20448;-64
2022/09/11 12:06:51;;;;;;;;;;;;;;;;;;5081405;28;19923;-63
2022/09/11 12:09:16;;;;;;;;;;;;;;;;;;5072673;28;19920;-62
2022/09/11 12:11:42;;;;;;;;;;;;;;;;;;5074340;28;19995;-62
2022/09/11 12:14:07;;;;;;;;;;;;;;;;;;5082599;28;19924;-64
2022/09/11 12:16:33;;;;;;;;;;;;;;;;;;5075570;28;19916;-63
2022/09/11 12:18:58;;;;;;;;;;;;;;;;;;5082806;28;19916;-63
2022/09/11 12:21:23;;;;;;;;;;;;;;;;;;5072452;28;19927;-64
2022/09/11 12:23:49;;;;;;;;;;;;;;;;;;5052647;28;19981;-63
2022/09/11 12:26:14;;;;;;;;;;;;;;;;;;5077744;28;19920;-63
2022/09/11 12:28:39;;;;;;;;;;;;;;;;;;5077611;28;19923;-63
2022/09/11 12:31:05;;;;;;;;;;;;;;;;;;5069469;28;19923;-63
2022/09/11 12:33:30;;;;;;;;;;;;;;;;;;5077540;28;19916;-63
2022/09/11 12:35:55;;;;;;;;;;;;;;;;;;5077589;28;19916;-64
2022/09/11 12:38:21;;;;;;;;;;;;;;;;;;5085796;28;20006;-63
2022/09/11 12:40:46;;;;;;;;;;;;;;;;;;5079861;28;19912;-63
2022/09/11 12:43:12;;;;;;;;;;;;;;;;;;5085080;28;20006;-63
2022/09/11 12:45:38;;;;;;;;;;;;;;;;;;5080869;28;20692;-63
2022/09/11 12:48:03;;;;;;;;;;;;;;;;;;5077875;28;20329;-63
2022/09/11 12:50:28;;;;;;;;;;;;;;;;;;5067650;28;20060;-63
2022/09/11 12:53:01;;;;;;;;;;;;;;;;;;5063538;28;19916;-65
2022/09/11 12:55:26;;;;;;;;;;;;;;;;;;5085376;28;20026;-63
2022/09/11 12:57:51;;;;;;;;;;;;;;;;;;5078216;28;20448;-63
2022/09/11 13:00:16;;;;;;;;;;;;;;;;;;5077177;28;19927;-63
2022/09/11 13:02:41;;;;;;;;;;;;;;;;;;5085519;28;19916;-63
2022/09/11 13:05:07;;;;;;;;;;;;;;;;;;5077472;28;20489;-63
2022/09/11 13:07:32;;;;;;;;;;;;;;;;;;5084710;28;20294;-62
2022/09/11 13:09:57;;;;;;;;;;;;;;;;;;5077516;28;20526;-63
2022/09/11 13:12:23;;;;;;;;;;;;;;;;;;5078690;28;19923;-63
2022/09/11 13:14:49;;;;;;;;;;;;;;;;;;5082875;28;19916;-63
2022/09/11 13:17:14;;;;;;;;;;;;;;;;;;5077463;28;19916;-63
2022/09/11 13:19:39;;;;;;;;;;;;;;;;;;5086259;28;19920;-63
2022/09/11 13:22:05;;;;;;;;;;;;;;;;;;5076172;28;19923;-63
2022/09/11 13:24:30;;;;;;;;;;;;;;;;;;5064434;28;20285;-64
2022/09/11 13:26:58;;;;;;;;;;;;;;;;;;5083737;28;19916;-64
2022/09/11 13:29:23;;;;;;;;;;;;;;;;;;5077891;28;19923;-64
2022/09/11 13:31:48;;;;;;;;;;;;;;;;;;5085576;28;19916;-64
2022/09/11 13:34:14;;;;;;;;;;;;;;;;;;5073898;28;19912;-64
2022/09/11 13:36:39;;;;;;;;;;;;;;;;;;5080201;28;19916;-64
2022/09/11 13:39:04;;;;;;;;;;;;;;;;;;5083222;28;20028;-64
2022/09/11 13:41:29;;;;;;;;;;;;;;;;;;5078721;28;19974;-65
2022/09/11 13:43:55;;;;;;;;;;;;;;;;;;5085830;28;19916;-64
2022/09/11 13:46:20;;;;;;;;;;;;;;;;;;5077808;28;20330;-64
2022/09/11 13:48:45;;;;;;;;;;;;;;;;;;5075562;28;20368;-65
2022/09/11 13:51:10;;;;;;;;;;;;;;;;;;5084486;28;19923;-64
2022/09/11 13:53:35;;;;;;;;;;;;;;;;;;5078379;28;19916;-64
2022/09/11 13:56:00;;;;;;;;;;;;;;;;;;5085618;28;20358;-65
2022/09/11 13:58:28;;;;;;;;;;;;;;;;;;5078518;28;20065;-64
2022/09/11 14:00:54;;;;;;;;;;;;;;;;;;5075064;28;19922;-65
2022/09/11 14:03:19;;;;;;;;;;;;;;;;;;5082761;28;19916;-65
2022/09/11 14:05:44;;;;;;;;;;;;;;;;;;5077532;28;20388;-65
2022/09/11 14:08:10;;;;;;;;;;;;;;;;;;5085166;28;19912;-64
2022/09/11 14:10:35;;;;;;;;;;;;;;;;;;5073886;28;20002;-64
2022/09/11 14:13:00;;;;;;;;;;;;;;;;;;5075299;28;19916;-64
2022/09/11 14:15:25;;;;;;;;;;;;;;;;;;5084572;28;19916;-64
2022/09/11 14:17:51;;;;;;;;;;;;;;;;;;5062669;28;19920;-64
2022/09/11 14:20:16;;;;;;;;;;;;;;;;;;5080855;28;20142;-64
2022/09/11 14:22:41;;;;;;;;;;;;;;;;;;5081118;28;19916;-64
2022/09/11 14:25:06;;;;;;;;;;;;;;;;;;5081139;28;20145;-65
2022/09/11 14:27:32;;;;;;;;;;;;;;;;;;5071735;28;19927;-64
2022/09/11 14:29:57;;;;;;;;;;;;;;;;;;5083854;28;20450;-64
2022/09/11 14:32:22;;;;;;;;;;;;;;;;;;5080406;28;20675;-64
2022/09/11 14:34:47;;;;;;;;;;;;;;;;;;5082543;28;20287;-64
2022/09/11 14:37:12;;;;;;;;;;;;;;;;;;5082823;28;20411;-64
2022/09/11 14:39:38;;;;;;;;;;;;;;;;;;5070593;28;19916;-65
2022/09/11 14:42:04;;;;;;;;;;;;;;;;;;5085519;28;20400;-64
2022/09/11 14:44:31;;;;;;;;;;;;;;;;;;5084084;28;19920;-65
2022/09/11 14:46:58;;;;;;;;;;;;;;;;;;5084682;28;19934;-64
2022/09/11 14:49:23;;;;;;;;;;;;;;;;;;5084276;28;19970;-65
2022/09/11 14:51:48;;;;;;;;;;;;;;;;;;5084266;28;19951;-65
2022/09/11 14:54:13;;;;;;;;;;;;;;;;;;5084980;28;19916;-64
2022/09/11 14:56:39;;;;;;;;;;;;;;;;;;5084668;28;19916;-65
2022/09/11 14:59:04;;;;;;;;;;;;;;;;;;5084039;28;19959;-65
2022/09/11 15:01:29;;;;;;;;;;;;;;;;;;5084780;28;19990;-64
2022/09/11 15:03:55;;;;;;;;;;;;;;;;;;5082697;28;19943;-65
2022/09/11 15:06:20;;;;;;;;;;;;;;;;;;5083250;28;19967;-64
2022/09/11 15:08:46;;;;;;;;;;;;;;;;;;5084002;28;19916;-64
2022/09/11 15:11:11;;;;;;;;;;;;;;;;;;5083070;28;19916;-64
2022/09/11 15:13:37;;;;;;;;;;;;;;;;;;5084873;28;20546;-64
2022/09/11 15:16:03;;;;;;;;;;;;;;;;;;5065868;28;19923;-65
2022/09/11 15:18:28;;;;;;;;;;;;;;;;;;5071173;28;19927;-65
2022/09/11 15:20:53;;;;;;;;;;;;;;;;;;5083920;28;19915;-66
2022/09/11 15:23:18;;;;;;;;;;;;;;;;;;5082667;28;19923;-66
2022/09/11 15:25:44;;;;;;;;;;;;;;;;;;5084786;28;19924;-65
2022/09/11 15:28:09;;;;;;;;;;;;;;;;;;5084393;28;19915;-65
2022/09/11 15:30:34;;;;;;;;;;;;;;;;;;5084709;28;20456;-65
2022/09/11 15:32:59;;;;;;;;;;;;;;;;;;5083306;28;19912;-65
2022/09/11 15:35:25;;;;;;;;;;;;;;;;;;5083791;28;20328;-64
2022/09/11 15:37:50;;;;;;;;;;;;;;;;;;5083869;28;20003;-65
2022/09/11 15:40:15;;;;;;;;;;;;;;;;;;5082173;28;20328;-65
2022/09/11 15:42:41;;;;;;;;;;;;;;;;;;5084023;28;19966;-63
2022/09/11 15:45:06;;;;;;;;;;;;;;;;;;5083484;28;19920;-66
2022/09/11 15:47:31;;;;;;;;;;;;;;;;;;5084083;28;19927;-66
2022/09/11 15:49:57;;;;;;;;;;;;;;;;;;5084036;28;19930;-65
2022/09/11 15:52:22;;;;;;;;;;;;;;;;;;5083551;28;19912;-66
2022/09/11 15:54:48;;;;;;;;;;;;;;;;;;5083410;28;19921;-65
2022/09/11 15:57:13;;;;;;;;;;;;;;;;;;5083974;28;19916;-65
2022/09/11 15:59:39;;;;;;;;;;;;;;;;;;5083856;28;19930;-65
2022/09/11 16:02:04;;;;;;;;;;;;;;;;;;5086496;28;19923;-65
2022/09/11 16:04:31;;;;;;;;;;;;;;;;;;5088204;28;19923;-65
2022/09/11 16:06:56;;;;;;;;;;;;;;;;;;5085111;28;20007;-65
2022/09/11 16:09:21;;;;;;;;;;;;;;;;;;5087043;28;19978;-65
2022/09/11 16:11:49;;;;;;;;;;;;;;;;;;5086711;28;20036;-65
2022/09/11 16:14:14;;;;;;;;;;;;;;;;;;5085044;28;19965;-66
2022/09/11 16:16:40;;;;;;;;;;;;;;;;;;5085729;28;19916;-66
2022/09/11 16:19:05;;;;;;;;;;;;;;;;;;5086251;28;20017;-65
2022/09/11 16:21:30;;;;;;;;;;;;;;;;;;5086110;28;20030;-65
2022/09/11 16:23:55;;;;;;;;;;;;;;;;;;5086259;28;19916;-64
2022/09/11 16:26:23;;;;;;;;;;;;;;;;;;5072031;28;19920;-65
2022/09/11 16:28:49;;;;;;;;;;;;;;;;;;5086065;28;19924;-65
2022/09/11 16:31:14;;;;;;;;;;;;;;;;;;5086464;28;19924;-65
2022/09/11 16:33:39;;;;;;;;;;;;;;;;;;5087648;28;19916;-65
2022/09/11 16:36:04;;;;;;;;;;;;;;;;;;5084468;28;19923;-65